Aurillac Airport

LFLW · Cantal, Auvergne-Rhône-Alpes, 法国

使用的METAR站距离机场149 km。
罗盘
风向 的 风向 的 风向 到 风向 130° Aurillac Airport 15/33
风: 4 kt, 2 beaufort

4 kt

1 kt
改变
0 ft 1.000 2.000 3.000 4.000 5.000
CAVOK
METAR LFCK 141830Z AUTO 13004KT 060V150 CAVOK 25/13 Q1020 NOSIG

METAR Aurillac Airport - LFLW/AUR

Aurillac Airport是,法国中的中型机场。 该机场位于纬度44,89145和经度2,42219。 该机场有一条跑道: 15/33. 本场的ICAO机场代码为LFLW。 该机场的IATA代码为AUR。 机场在Bordeaux FIR中。

该航空气象观测是针对Castres-Mazamet Airport在2024年4月14日 20:30, 当地时间进行的。

机场观察

风向为130°,速度为4 kt。 风向在060°和150°之间变化。

天气为CAVOK。这意味着在5.000 ft或MSA(最低安全高度)以下(以较高者为准)以下没有云。这也意味着没有观测到积雨云或高耸的积云,可见度为10 km 或者更多或更高。此外,不会有雾,降雨或其他重要天气。

温度和风寒是25 °C。 露点为13 °C,相对湿度为47%。 海平面上的气压为1020 hPa (QNH)。

白天

今天,太阳从07:06升起,在20:34降落。 这适用于Aurillac Airport,世界夏令时可能有所不同。 当地时间与世界标准时间之间的时差为+2 小时。 夏令时目前正在进行中。

公司介绍

在这个机场,你可以找到飞行俱乐部。 本场上唯一已知的公司是Aéroclub du Cantal。

体会

到Vliegles.nl去找飞行课程,跳伞和其他飞行体验。 浏览页面,了解Aurillac Airport附近所有可用的活动。 你也可以使用搜索功能来寻找你所在地附近的特定飞行课程、跳伞或其他飞行体验。

跑道

Id 标题 侧风 逆风 侧风 %
15/33 149°-329° 1 kt 4 kt 33 %

逆风成分最大的方向会被突出显示,并用于横风计算。 这并不一定意味着这个方向在使用。

温度 & 天气

温度 25 °C
露点 13 °C
相对湿度 47%
Kp-index 0 (0-9)

白天

日出
07:08 (10:30)
中午
13:50
日落
20:33

小工具

你想在你的网站上有一个关于Aurillac Airport的当前航空天气(METAR)的小部件吗?

显示HTML代码
报告变更